Résultats

Course CAP Nature Enfants : Poussins : 2001-2002. Édition 2012.

2 Km
20/05/2012 à 00:00:00 - ()
37 arrivant(e)s.


 
Les autres classements de cet évènement




Place▲ Temps Dossard Nom Prenom Categ #Categ Sexe #Sexe Club Vit Moy Diplôme Partager
1 00:02:12 439 SINDOU NICOLAS POM 1 M 1 27.27
2 00:02:14 386 LATOUR ROMAIN POM 2 M 2 ASPTT MARSEILLE 26.87
3 00:02:16 417 SILVESTRE LUCIE POF 1 F 1 26.47
4 00:02:17 430 INCONNU POM 3 M 3 26.28
5 00:02:21 409 KERZERHO MATHILDE POF 2 F 2 25.53
6 00:02:21 431 INCONNU POM 4 M 4 25.53
7 00:02:23 402 SALINS MATHILDE POF 3 F 3 AMICALE DES PENNES MIRABEAU 25.17
8 00:02:25 427 TOPPE AXEL POM 5 M 5 USC SEPTEMES 24.83
9 00:02:28 355 FIORI THELMA POF 4 F 4 24.32
10 00:02:29 380 VERAN THALIE POF 5 F 5 24.16
11 00:02:29 400 MACALUSO VALENTIN POM 6 M 6 ATOUT COEUR 24.16
12 00:02:30 405 PERRIER MELVIN POM 7 M 7 APM 24.00
13 00:02:31 328 LOISON SYLVAIN POM 8 M 8 23.84
14 00:02:31 379 COUNES CLAIRE POF 6 F 6 23.84
15 00:02:32 410 CRISTOFINI MAXIME POM 9 M 9 23.68
16 00:02:32 401 ORIO EMELINE POF 7 F 7 APM 23.68
17 00:02:33 363 QUARELLO FABIEN POM 10 M 10 23.53
18 00:02:34 339 LAIMECHE INES POF 8 F 8 23.38
19 00:02:35 406 MERAY JULIEN POM 11 M 11 23.23
20 00:02:39 411 TAGLIANTE JEAN-MARIE POM 12 M 12 APM 22.64
21 00:02:39 419 PERNOT FLORE POF 9 F 9 22.64
22 00:02:40 436 DELPINO MARINE POF 10 F 10 22.50
23 00:02:41 327 SABASSIER IONNA POF 11 F 11 22.36
24 00:02:42 354 FERRANDO JORDAN POM 13 M 13 22.22
25 00:02:43 320 TIGHILT KAIS POM 14 M 14 9.9
26 00:02:43 414 LE-TARO LILA POF 12 F 12 9.9
27 00:02:46 344 RICHET JULIANNE EAF 1 F 13 21.69
28 00:02:47 319 YEKKEN HICHAM POM 15 M 15 21.56
29 00:02:49 418 DERIAU ALEX POM 16 M 16 21.30
30 00:02:55 385 BEZIERS CAMILLE POF 13 F 14 20.57
31 00:02:55 435 DJOUDER AALYA POF 14 F 15 20.57
32 00:02:56 433 SANTUCCI MARINE POF 15 F 16 20.45
33 00:03:01 403 DUCOS CHARLOTTE POF 16 F 17 19.89
34 00:03:02 367 GAUVRIT CAMILLE POF 17 F 18 19.78
35 00:03:11 341 BONELLI LAURINE POF 18 F 19 18.85
36 00:03:15 422 BARBARIA CASSANDRA POF 19 F 20 APM 18.46
37 00:03:19 332 BENDAAS LEHNA POF 20 F 21 9.9